Time;durP1;ratioP1;P1;durP2;ratioP2;P2;SDS_P1;SDS_P2;PMS_P1;PMS_P2;Temp;Humidity;BMP_temperature;BMP_pressure;BME280_temperature;BME280_humidity;BME280_pressure;Samples;Min_cycle;Max_cycle;Signal;HPM_P1;HPM_P2
2020/12/13 00:00:33;;;;;;;40.97;30.10;;;;;;;3.53;100.00;96984.81;5134132;27;20571;-68
2020/12/13 00:03:11;;;;;;;37.93;29.00;;;;;;;3.51;100.00;96989.78;5133787;27;20203;-69
2020/12/13 00:05:38;;;;;;;37.80;28.77;;;;;;;3.58;100.00;96990.09;5133130;27;20251;-69
2020/12/13 00:08:04;;;;;;;41.07;29.83;;;;;;;3.63;100.00;96989.16;5115766;27;20286;-69
2020/12/13 00:10:30;;;;;;;43.57;31.73;;;;;;;3.51;100.00;96997.97;5133603;27;20920;-68
2020/12/13 00:12:56;;;;;;;39.07;29.63;;;;;;;3.47;100.00;96999.72;5114431;27;20235;-69
2020/12/13 00:15:22;;;;;;;40.90;30.40;;;;;;;3.47;100.00;96998.91;5132920;27;20262;-69
2020/12/13 00:17:48;;;;;;;40.50;29.83;;;;;;;3.48;100.00;96990.44;5133702;27;20239;-69
2020/12/13 00:20:15;;;;;;;43.77;30.70;;;;;;;3.51;100.00;97000.69;5115427;27;20662;-69
2020/12/13 00:22:41;;;;;;;39.07;28.97;;;;;;;3.48;100.00;96993.16;5121582;27;20215;-68
2020/12/13 00:25:11;;;;;;;41.10;30.37;;;;;;;3.43;100.00;96997.97;5152210;27;20210;-69
2020/12/13 00:27:38;;;;;;;41.77;29.90;;;;;;;3.52;100.00;97001.50;5138865;27;20286;-69
2020/12/13 00:30:05;;;;;;;40.47;29.07;;;;;;;3.47;100.00;97005.16;5133909;27;20298;-69
2020/12/13 00:32:34;;;;;;;40.50;29.37;;;;;;;3.34;100.00;97006.09;5097748;28;20290;-69
2020/12/13 00:35:01;;;;;;;40.33;29.17;;;;;;;3.67;100.00;97003.72;5111158;28;20311;-68
2020/12/13 00:37:28;;;;;;;40.03;28.10;;;;;;;3.58;100.00;97003.75;5112765;28;20260;-68
2020/12/13 00:39:54;;;;;;;40.77;28.77;;;;;;;3.60;100.00;97004.22;5113159;28;20290;-70
2020/12/13 00:42:20;;;;;;;39.17;29.20;;;;;;;3.57;100.00;97010.31;5094886;28;20637;-69
2020/12/13 00:44:47;;;;;;;41.57;29.80;;;;;;;3.64;100.00;97012.56;5112227;28;20230;-69
2020/12/13 00:47:13;;;;;;;39.73;28.63;;;;;;;3.74;100.00;97015.78;5112791;28;20231;-69
2020/12/13 00:49:39;;;;;;;42.90;30.20;;;;;;;3.69;100.00;97020.59;5112359;28;20290;-68
2020/12/13 00:52:05;;;;;;;41.63;30.53;;;;;;;3.63;100.00;97017.22;5112997;28;20200;-69
2020/12/13 00:54:32;;;;;;;41.17;28.63;;;;;;;3.53;100.00;97014.00;5111691;28;20228;-69
2020/12/13 00:56:58;;;;;;;42.17;30.07;;;;;;;3.54;100.00;97021.06;5112171;28;20214;-69
2020/12/13 01:33:43;;;;;;;44.60;31.10;;;;;;;3.54;100.00;97049.13;5108762;27;20495;-69
2020/12/13 01:36:12;;;;;;;51.17;34.27;;;;;;;3.61;100.00;97054.91;5107682;28;20298;-71
2020/12/13 01:38:38;;;;;;;50.53;34.60;;;;;;;3.74;100.00;97061.38;5108316;28;20298;-70
2020/12/13 01:41:04;;;;;;;53.40;34.13;;;;;;;3.55;100.00;97072.56;5109146;28;20687;-69
2020/12/13 01:43:34;;;;;;;58.10;36.57;;;;;;;3.40;100.00;97072.19;5108561;28;20230;-70
2020/12/13 01:46:00;;;;;;;51.43;34.03;;;;;;;3.47;100.00;97064.34;5109077;28;20239;-70
2020/12/13 01:48:27;;;;;;;51.90;34.00;;;;;;;3.56;100.00;97078.84;5110211;28;20298;-69
2020/12/13 01:51:09;;;;;;;50.23;33.80;;;;;;;3.73;100.00;97082.38;5110415;28;20265;-69
2020/12/13 01:53:37;;;;;;;53.57;33.60;;;;;;;3.69;100.00;97078.69;5109948;28;20314;-69
2020/12/13 01:56:03;;;;;;;57.03;34.37;;;;;;;3.66;100.00;97078.50;5118452;28;20614;-69
2020/12/13 01:58:43;;;;;;;53.80;34.73;;;;;;;3.49;100.00;97082.00;5123424;28;20364;-71
2020/12/13 02:01:10;;;;;;;50.00;32.47;;;;;;;3.44;100.00;97084.09;5109005;28;20243;-70
2020/12/13 02:03:53;;;;;;;48.83;33.10;;;;;;;3.38;100.00;97091.59;5108036;28;20211;-68
2020/12/13 02:06:24;;;;;;;53.37;33.03;;;;;;;3.45;100.00;97091.16;5108246;28;20298;-68
2020/12/13 02:08:51;;;;;;;49.90;33.03;;;;;;;3.59;100.00;97097.28;5108719;28;20219;-68
2020/12/13 02:11:19;;;;;;;49.40;34.03;;;;;;;3.62;100.00;97100.16;5108387;28;20290;-69
2020/12/13 02:13:49;;;;;;;48.93;33.73;;;;;;;3.58;100.00;97099.19;5108200;28;20204;-69
2020/12/13 02:16:16;;;;;;;53.23;33.53;;;;;;;3.71;100.00;97097.44;5108173;28;20291;-69
2020/12/13 02:18:42;;;;;;;55.83;34.30;;;;;;;3.59;100.00;97100.00;5108494;28;20668;-69
2020/12/13 02:21:12;;;;;;;48.93;33.43;;;;;;;3.62;100.00;97100.16;5108307;28;20740;-70
2020/12/13 02:23:40;;;;;;;50.17;32.50;;;;;;;3.57;100.00;97103.06;5106567;28;20210;-69
2020/12/13 02:26:14;;;;;;;52.77;32.33;;;;;;;3.53;100.00;97099.34;5107729;28;20203;-69
2020/12/13 02:28:40;;;;;;;48.40;31.43;;;;;;;3.58;100.00;97110.09;5107251;28;20243;-69
2020/12/13 02:31:07;;;;;;;49.53;32.13;;;;;;;3.56;100.00;97101.44;5108292;28;20299;-68
2020/12/13 02:33:35;;;;;;;49.60;31.73;;;;;;;3.49;100.00;97105.75;5107406;28;20228;-69
2020/12/13 02:36:03;;;;;;;50.10;33.30;;;;;;;3.57;100.00;97103.06;5107785;28;20204;-69
2020/12/13 02:38:31;;;;;;;49.27;31.90;;;;;;;3.57;100.00;97105.78;5118022;28;20673;-69
2020/12/13 02:40:58;;;;;;;43.90;30.60;;;;;;;3.61;100.00;97106.72;5121370;28;20208;-70
2020/12/13 02:43:25;;;;;;;46.17;31.87;;;;;;;3.53;100.00;97112.97;5103559;28;20209;-69
2020/12/13 02:45:51;;;;;;;47.53;31.33;;;;;;;3.49;100.00;97111.19;5093590;28;20231;-69
2020/12/13 02:48:18;;;;;;;46.30;30.63;;;;;;;3.51;100.00;97115.22;5093120;28;20287;-69
2020/12/13 02:50:44;;;;;;;48.73;31.77;;;;;;;3.58;100.00;97120.19;5060010;28;20208;-69
2020/12/13 02:53:10;;;;;;;50.00;32.57;;;;;;;3.47;100.00;97114.25;5094137;28;20228;-70
2020/12/13 02:55:36;;;;;;;49.83;31.43;;;;;;;3.56;100.00;97120.53;5092256;28;20312;-69
2020/12/13 02:58:02;;;;;;;52.37;32.03;;;;;;;3.46;100.00;97123.56;5094238;28;20295;-69
2020/12/13 03:00:28;;;;;;;53.27;33.60;;;;;;;3.69;100.00;97122.31;5094197;28;20209;-69
2020/12/13 03:02:54;;;;;;;48.90;31.40;;;;;;;3.72;100.00;97126.34;5092599;28;20291;-69
2020/12/13 03:05:20;;;;;;;51.13;32.67;;;;;;;3.63;100.00;97130.97;5093361;28;20274;-69
2020/12/13 03:07:46;;;;;;;48.87;31.50;;;;;;;3.71;100.00;97125.53;5094091;28;20273;-69
2020/12/13 03:10:12;;;;;;;46.07;30.97;;;;;;;3.83;100.00;97131.16;5094166;28;20259;-69
2020/12/13 03:12:40;;;;;;;44.93;30.80;;;;;;;3.88;100.00;97136.50;5094033;28;20305;-69
2020/12/13 03:15:06;;;;;;;44.10;28.60;;;;;;;3.67;100.00;97134.66;5093305;28;20316;-69
2020/12/13 03:17:32;;;;;;;42.53;28.37;;;;;;;3.72;100.00;97132.59;5092652;28;20295;-69
2020/12/13 03:19:58;;;;;;;46.43;29.53;;;;;;;3.76;100.00;97143.69;5093875;28;20657;-69
2020/12/13 03:22:24;;;;;;;46.00;29.60;;;;;;;3.76;100.00;97139.03;5096795;28;20204;-69
2020/12/13 03:24:50;;;;;;;43.90;29.20;;;;;;;3.82;100.00;97143.22;5103229;28;20286;-69
2020/12/13 03:27:17;;;;;;;45.03;29.20;;;;;;;3.71;100.00;97147.34;5095631;28;20212;-69
2020/12/13 03:29:45;;;;;;;42.57;28.43;;;;;;;3.71;100.00;97150.09;5093495;28;20212;-69
2020/12/13 03:32:12;;;;;;;41.70;27.43;;;;;;;3.70;100.00;97159.41;5093338;28;20311;-68
2020/12/13 03:34:38;;;;;;;38.90;26.57;;;;;;;3.66;100.00;97152.97;5092752;28;20228;-68
2020/12/13 03:37:04;;;;;;;40.37;28.10;;;;;;;3.82;100.00;97151.41;5093372;28;20236;-69
2020/12/13 03:39:30;;;;;;;41.07;26.53;;;;;;;3.81;100.00;97157.97;5093550;28;20236;-69
2020/12/13 03:41:56;;;;;;;39.63;27.33;;;;;;;3.82;100.00;97153.31;5093380;28;20621;-69
2020/12/13 03:44:22;;;;;;;37.53;26.33;;;;;;;3.93;100.00;97158.16;5091100;28;20340;-69
2020/12/13 03:46:48;;;;;;;41.33;27.43;;;;;;;3.92;100.00;97159.28;5093126;28;20204;-69
2020/12/13 03:49:15;;;;;;;37.63;25.70;;;;;;;4.00;100.00;97166.69;5092313;28;20230;-69
2020/12/13 03:51:41;;;;;;;38.43;25.83;;;;;;;3.92;100.00;97169.41;5092798;28;20231;-69
2020/12/13 03:54:07;;;;;;;39.20;26.37;;;;;;;3.79;100.00;97165.69;5092536;28;20260;-68
2020/12/13 03:56:33;;;;;;;39.53;26.30;;;;;;;3.69;100.00;97176.88;5090688;28;20254;-68
2020/12/13 03:58:59;;;;;;;39.30;26.57;;;;;;;3.84;100.00;97167.44;5093163;28;20224;-68
2020/12/13 04:01:25;;;;;;;37.33;25.10;;;;;;;4.10;100.00;97173.75;5093107;28;20208;-68
2020/12/13 04:03:51;;;;;;;37.20;25.50;;;;;;;3.82;100.00;97169.69;5092300;28;20224;-68
2020/12/13 04:06:17;;;;;;;35.57;25.10;;;;;;;3.81;100.00;97179.78;5092368;28;20230;-68
2020/12/13 04:08:43;;;;;;;39.00;24.63;;;;;;;3.88;100.00;97182.88;5092827;28;20208;-68
2020/12/13 04:11:11;;;;;;;39.63;24.83;;;;;;;3.94;100.00;97187.03;5092613;28;20197;-68
2020/12/13 04:13:37;;;;;;;36.10;25.03;;;;;;;3.93;100.00;97185.44;5092358;28;20252;-68
2020/12/13 04:16:05;;;;;;;35.90;24.70;;;;;;;3.93;100.00;97187.38;5092421;28;20299;-68
2020/12/13 04:18:32;;;;;;;35.90;24.83;;;;;;;3.92;100.00;97186.56;5093078;28;20227;-68
2020/12/13 04:20:58;;;;;;;34.37;24.37;;;;;;;3.93;100.00;97198.28;5093476;28;20689;-68
2020/12/13 04:23:25;;;;;;;33.63;23.77;;;;;;;3.78;100.00;97191.34;5092704;28;20258;-68
2020/12/13 04:25:51;;;;;;;34.20;24.50;;;;;;;3.79;100.00;97192.97;5093081;28;20224;-68
2020/12/13 04:28:17;;;;;;;34.27;24.80;;;;;;;3.91;100.00;97189.59;5092994;28;20303;-68
2020/12/13 04:30:43;;;;;;;36.87;24.87;;;;;;;3.89;100.00;97192.66;5092854;28;20215;-68
2020/12/13 04:33:10;;;;;;;34.73;22.87;;;;;;;3.87;100.00;97203.09;5092418;28;20319;-68
2020/12/13 04:35:38;;;;;;;35.80;25.60;;;;;;;4.04;100.00;97211.31;5092050;28;20247;-67
2020/12/13 04:38:04;;;;;;;34.23;23.93;;;;;;;3.81;100.00;97201.63;5092625;28;20238;-69
2020/12/13 04:40:33;;;;;;;34.37;24.20;;;;;;;4.14;100.00;97211.00;5092231;28;20291;-68
2020/12/13 04:43:00;;;;;;;33.80;24.50;;;;;;;4.08;100.00;97216.94;5092259;28;20258;-68
2020/12/13 04:45:28;;;;;;;32.33;23.13;;;;;;;3.99;100.00;97213.41;5092148;28;20335;-68
2020/12/13 04:48:07;;;;;;;33.40;22.73;;;;;;;4.10;100.00;97215.53;5092081;28;20215;-68
2020/12/13 04:50:37;;;;;;;33.47;23.60;;;;;;;4.02;100.00;97212.75;5093810;28;20243;-68
2020/12/13 04:53:08;;;;;;;32.20;22.30;;;;;;;4.00;100.00;97210.34;5097133;28;20231;-68
2020/12/13 04:55:55;;;;;;;33.47;22.27;;;;;;;4.08;100.00;97211.50;5096829;28;20757;-68
2020/12/13 04:58:30;;;;;;;33.43;22.90;;;;;;;3.99;100.00;97216.13;5092304;28;20704;-68
2020/12/13 05:00:58;;;;;;;31.87;22.17;;;;;;;3.94;100.00;97211.59;5091950;28;20210;-69
2020/12/13 05:03:26;;;;;;;31.07;22.53;;;;;;;3.92;100.00;97213.06;5091436;28;20216;-68
2020/12/13 05:06:02;;;;;;;30.63;22.67;;;;;;;3.86;100.00;97215.13;5090902;28;20232;-69
2020/12/13 05:08:29;;;;;;;32.17;22.67;;;;;;;4.00;100.00;97213.06;5091858;28;20204;-69
2020/12/13 05:10:56;;;;;;;31.93;22.43;;;;;;;4.30;100.00;97216.03;5086729;28;20239;-69
2020/12/13 05:13:23;;;;;;;33.67;22.33;;;;;;;4.11;100.00;97221.75;5091276;28;20311;-69
2020/12/13 05:15:49;;;;;;;32.70;22.90;;;;;;;4.07;100.00;97213.41;5091147;28;20316;-69
2020/12/13 05:18:15;;;;;;;33.27;23.97;;;;;;;4.13;100.00;97220.34;5091711;28;20212;-69
2020/12/13 05:20:43;;;;;;;30.63;22.43;;;;;;;3.94;100.00;97221.75;5091993;28;20200;-68
2020/12/13 05:23:09;;;;;;;30.03;21.60;;;;;;;4.06;100.00;97228.19;5091229;28;20716;-69
2020/12/13 05:25:40;;;;;;;31.17;22.20;;;;;;;4.31;100.00;97239.47;5090822;28;20306;-69
2020/12/13 05:28:08;;;;;;;32.53;22.93;;;;;;;4.57;100.00;97243.03;5091877;28;20271;-68
2020/12/13 05:30:47;;;;;;;33.40;22.57;;;;;;;4.57;100.00;97248.50;5091312;28;20685;-68
2020/12/13 05:33:24;;;;;;;33.93;24.00;;;;;;;4.44;100.00;97247.53;5091140;28;20311;-68
2020/12/13 05:35:59;;;;;;;31.57;23.53;;;;;;;4.18;100.00;97254.06;5091541;28;20235;-68
2020/12/13 05:38:31;;;;;;;32.00;23.00;;;;;;;4.25;100.00;97252.50;5094224;28;20208;-68
2020/12/13 05:41:00;;;;;;;32.50;22.47;;;;;;;4.26;100.00;97256.00;5097715;28;20291;-68
2020/12/13 05:43:30;;;;;;;34.60;22.90;;;;;;;4.33;100.00;97259.06;5094109;28;20208;-68
2020/12/13 05:48:37;;;;;;;34.30;23.40;;;;;;;4.37;100.00;97263.59;5091775;28;20244;-67
2020/12/13 05:53:36;;;;;;;33.13;23.63;;;;;;;4.82;100.00;97258.63;5090759;28;20231;-68
2020/12/13 05:56:20;;;;;;;32.27;22.83;;;;;;;4.52;100.00;97270.50;5090994;28;20201;-68
2020/12/13 05:58:48;;;;;;;32.87;23.73;;;;;;;4.41;100.00;97271.94;5091443;28;20212;-68
2020/12/13 06:01:20;;;;;;;33.23;23.60;;;;;;;4.24;100.00;97280.91;5090269;28;20204;-69
2020/12/13 06:03:50;;;;;;;29.47;21.33;;;;;;;4.25;100.00;97265.31;5089492;28;20196;-67
2020/12/13 06:06:21;;;;;;;32.70;21.97;;;;;;;4.19;100.00;97270.13;5090602;28;20239;-67
2020/12/13 06:09:06;;;;;;;33.50;22.70;;;;;;;4.42;100.00;97271.63;5091318;28;20211;-67
2020/12/13 06:11:46;;;;;;;29.00;21.07;;;;;;;4.24;100.00;97280.91;5087078;28;20243;-68
2020/12/13 06:14:18;;;;;;;28.23;20.07;;;;;;;4.30;100.00;97289.75;5090305;28;20740;-70
2020/12/13 06:16:45;;;;;;;29.77;20.40;;;;;;;4.43;100.00;97291.56;5090707;28;20729;-69
2020/12/13 06:19:14;;;;;;;29.53;20.50;;;;;;;4.19;100.00;97283.78;5092912;28;20253;-68
2020/12/13 06:21:42;;;;;;;30.10;19.87;;;;;;;4.11;100.00;97290.81;5095332;28;20246;-68
2020/12/13 06:24:11;;;;;;;32.10;20.80;;;;;;;4.36;100.00;97293.94;5107938;28;20228;-69
2020/12/13 06:26:38;;;;;;;34.87;22.50;;;;;;;4.18;100.00;97308.69;5102633;28;20597;-68
2020/12/13 06:29:06;;;;;;;33.97;21.73;;;;;;;4.30;100.00;97308.84;5093444;28;20204;-68
2020/12/13 06:31:34;;;;;;;35.10;22.10;;;;;;;4.33;100.00;97300.03;5094863;28;20219;-68
2020/12/13 06:34:01;;;;;;;34.87;23.10;;;;;;;4.24;100.00;97300.00;5093947;28;20234;-69
2020/12/13 06:36:28;;;;;;;34.20;21.70;;;;;;;4.39;100.00;97315.97;5094671;28;20270;-68
2020/12/13 06:38:57;;;;;;;33.90;22.00;;;;;;;4.45;100.00;97309.25;5094554;28;20208;-68
2020/12/13 06:41:30;;;;;;;33.90;22.23;;;;;;;4.32;100.00;97321.09;5094561;28;20291;-68
2020/12/13 06:43:56;;;;;;;34.47;21.37;;;;;;;4.34;100.00;97320.75;5093782;28;20278;-69
2020/12/13 06:46:27;;;;;;;33.80;21.03;;;;;;;4.25;100.00;97322.66;5094157;28;20296;-69
2020/12/13 06:48:54;;;;;;;32.97;20.83;;;;;;;4.21;100.00;97321.69;5094567;28;20243;-68
2020/12/13 06:51:23;;;;;;;34.53;21.23;;;;;;;4.10;100.00;97324.72;5094220;28;20204;-67
2020/12/13 06:53:49;;;;;;;32.50;20.67;;;;;;;4.25;100.00;97326.22;5093722;28;20307;-68
2020/12/13 06:56:18;;;;;;;35.43;19.93;;;;;;;4.11;100.00;97329.03;5093787;28;20204;-68
2020/12/13 06:58:46;;;;;;;33.10;21.17;;;;;;;4.34;100.00;97328.97;5094788;28;20240;-68
2020/12/13 07:01:20;;;;;;;34.93;20.50;;;;;;;4.36;100.00;97330.22;5094408;28;20299;-68
2020/12/13 07:03:46;;;;;;;30.63;21.53;;;;;;;4.29;100.00;97340.03;5093956;28;20205;-68
2020/12/13 07:06:21;;;;;;;35.93;22.40;;;;;;;4.27;100.00;97334.88;5093600;28;20291;-68
2020/12/13 07:08:55;;;;;;;37.77;21.77;;;;;;;4.27;100.00;97342.28;5093983;28;20632;-68
2020/12/13 07:11:24;;;;;;;37.57;23.13;;;;;;;4.12;100.00;97352.47;5089389;28;20291;-68
2020/12/13 07:13:52;;;;;;;38.37;24.03;;;;;;;4.27;100.00;97351.25;5093004;28;20225;-68
2020/12/13 07:16:38;;;;;;;38.40;24.00;;;;;;;4.49;100.00;97355.84;5093413;28;20201;-68
2020/12/13 07:19:10;;;;;;;39.63;24.27;;;;;;;4.25;100.00;97361.72;5093771;28;20204;-68
2020/12/13 07:21:38;;;;;;;36.73;23.37;;;;;;;4.57;100.00;97358.59;5093914;28;20283;-68
2020/12/13 07:24:07;;;;;;;37.27;24.43;;;;;;;4.32;100.00;97366.69;5093185;28;20225;-68
2020/12/13 07:26:36;;;;;;;41.73;24.33;;;;;;;4.34;100.00;97368.00;5093362;28;20257;-69
2020/12/13 07:29:04;;;;;;;45.80;25.30;;;;;;;4.28;100.00;97373.91;5093583;28;20208;-69
2020/12/13 07:31:38;;;;;;;37.20;24.50;;;;;;;4.22;100.00;97380.63;5091833;28;20246;-68
2020/12/13 07:34:05;;;;;;;48.50;23.93;;;;;;;4.23;100.00;97387.72;5092937;28;20610;-68
2020/12/13 07:36:33;;;;;;;41.87;26.07;;;;;;;4.15;100.00;97392.00;5093128;28;20215;-67
2020/12/13 07:39:07;;;;;;;45.10;24.87;;;;;;;4.19;100.00;97395.72;5093765;28;20287;-68
2020/12/13 07:41:34;;;;;;;55.43;25.20;;;;;;;4.19;100.00;97397.63;5093475;28;20269;-70
2020/12/13 07:44:02;;;;;;;39.30;24.97;;;;;;;4.11;100.00;97399.19;5092697;28;20304;-68
2020/12/13 07:46:30;;;;;;;47.40;23.70;;;;;;;4.35;100.00;97407.84;5092636;28;20669;-67
2020/12/13 07:48:59;;;;;;;44.90;24.07;;;;;;;4.28;100.00;97412.13;5092127;28;20205;-69
2020/12/13 07:51:30;;;;;;;46.20;25.33;;;;;;;4.46;100.00;97411.09;5093219;28;20678;-68
2020/12/13 07:54:11;;;;;;;44.67;25.77;;;;;;;4.33;100.00;97409.25;5093679;28;20319;-71
2020/12/13 07:56:37;;;;;;;46.67;25.97;;;;;;;4.72;100.00;97412.78;5117387;28;20196;-70
2020/12/13 07:59:07;;;;;;;47.27;26.93;;;;;;;4.80;100.00;97408.47;5097545;28;20309;-69
2020/12/13 08:01:33;;;;;;;52.50;24.93;;;;;;;4.76;100.00;97413.75;5093295;28;20236;-68
2020/12/13 08:04:00;;;;;;;42.77;25.27;;;;;;;4.64;100.00;97415.47;5091345;28;20220;-68
2020/12/13 08:06:26;;;;;;;48.87;25.97;;;;;;;4.59;100.00;97418.38;5092430;28;20616;-69
2020/12/13 08:08:52;;;;;;;44.23;25.07;;;;;;;4.58;100.00;97417.56;5093689;28;20204;-68
2020/12/13 08:11:18;;;;;;;50.67;24.17;;;;;;;4.54;100.00;97426.72;5086698;28;20208;-69
2020/12/13 08:13:52;;;;;;;47.63;26.80;;;;;;;4.46;100.00;97432.94;5092411;28;20224;-69
2020/12/13 08:16:19;;;;;;;42.67;25.87;;;;;;;4.47;100.00;97432.63;5093033;28;20687;-69
2020/12/13 08:18:49;;;;;;;47.87;24.20;;;;;;;4.49;100.00;97435.06;5092585;28;20208;-69
2020/12/13 08:21:24;;;;;;;46.37;24.20;;;;;;;4.34;100.00;97432.72;5093015;28;20665;-70
2020/12/13 08:23:55;;;;;;;39.73;24.60;;;;;;;4.43;100.00;97439.03;5092318;28;20227;-69
2020/12/13 08:26:22;;;;;;;49.47;24.43;;;;;;;4.47;100.00;97445.50;5091099;28;20248;-70
2020/12/13 08:28:51;;;;;;;47.17;24.73;;;;;;;4.56;100.00;97446.31;5092656;28;20301;-68
2020/12/13 08:31:22;;;;;;;44.93;24.67;;;;;;;4.55;100.00;97450.97;5091100;28;20248;-68
2020/12/13 08:33:58;;;;;;;41.70;23.87;;;;;;;4.55;100.00;97461.09;5091624;28;20267;-70
2020/12/13 08:36:25;;;;;;;48.10;24.17;;;;;;;4.39;100.00;97459.91;5091552;28;20215;-68
2020/12/13 08:39:05;;;;;;;46.53;24.00;;;;;;;4.50;100.00;97464.78;5092857;28;20230;-68
2020/12/13 08:41:31;;;;;;;43.20;24.13;;;;;;;4.46;100.00;97462.97;5104246;28;20236;-69
2020/12/13 08:43:58;;;;;;;43.60;23.53;;;;;;;4.36;100.00;97463.28;5096630;28;20304;-70
2020/12/13 08:46:41;;;;;;;42.80;23.20;;;;;;;4.47;100.00;97470.06;5091763;28;20204;-68
2020/12/13 08:49:08;;;;;;;46.23;23.77;;;;;;;4.51;100.00;97471.84;5092380;28;20208;-68
2020/12/13 08:51:35;;;;;;;46.67;22.50;;;;;;;4.33;100.00;97470.16;5092012;28;20692;-68
2020/12/13 08:54:03;;;;;;;46.20;24.27;;;;;;;4.51;100.00;97473.75;5091189;28;20268;-68
2020/12/13 08:56:37;;;;;;;43.03;23.13;;;;;;;4.58;100.00;97482.34;5091723;28;20296;-68
2020/12/13 08:59:05;;;;;;;43.20;24.77;;;;;;;4.79;100.00;97480.66;5091871;28;20287;-69
2020/12/13 09:01:36;;;;;;;46.10;25.67;;;;;;;4.99;100.00;97480.06;5090874;28;20288;-70
2020/12/13 09:04:25;;;;;;;37.47;22.60;;;;;;;4.84;100.00;97488.69;5090444;28;20713;-71
2020/12/13 09:07:02;;;;;;;36.87;23.17;;;;;;;4.58;100.00;97498.72;5091458;28;20287;-69
2020/12/13 09:09:32;;;;;;;49.33;24.80;;;;;;;4.62;100.00;97505.16;5088230;28;20688;-67
2020/12/13 09:12:00;;;;;;;39.83;22.50;;;;;;;4.79;100.00;97503.31;5090608;28;20883;-68
2020/12/13 09:14:31;;;;;;;39.23;23.53;;;;;;;4.57;100.00;97508.84;5090160;28;20250;-68
2020/12/13 09:16:59;;;;;;;39.57;22.57;;;;;;;4.65;100.00;97512.75;5091350;28;20634;-68
2020/12/13 09:19:26;;;;;;;39.80;22.93;;;;;;;4.83;100.00;97522.63;5091632;28;20209;-67
2020/12/13 09:21:52;;;;;;;40.93;21.87;;;;;;;4.79;100.00;97524.38;5091645;28;20821;-70
2020/12/13 09:24:21;;;;;;;40.97;23.53;;;;;;;4.73;100.00;97525.63;5093491;28;20220;-69
2020/12/13 09:27:00;;;;;;;40.63;22.67;;;;;;;4.85;100.00;97523.13;5100396;28;20201;-70
2020/12/13 09:29:26;;;;;;;36.37;21.33;;;;;;;4.68;100.00;97521.13;5094585;28;20298;-69
2020/12/13 09:31:52;;;;;;;37.03;19.60;;;;;;;4.81;100.00;97520.22;5091633;28;20645;-69
2020/12/13 09:34:20;;;;;;;39.53;20.67;;;;;;;4.78;100.00;97520.03;5089783;28;20786;-69
2020/12/13 09:36:49;;;;;;;34.40;21.23;;;;;;;4.70;100.00;97526.25;5091108;28;20243;-69
2020/12/13 09:39:27;;;;;;;33.50;19.53;;;;;;;4.73;100.00;97528.34;5091542;28;20299;-69
2020/12/13 09:41:54;;;;;;;34.83;19.53;;;;;;;4.85;100.00;97526.63;5091661;28;20212;-70
2020/12/13 09:44:21;;;;;;;38.37;21.27;;;;;;;4.81;100.00;97533.88;5090438;28;20973;-70
2020/12/13 09:46:47;;;;;;;35.13;21.00;;;;;;;4.89;100.00;97541.28;5091041;28;20297;-70
2020/12/13 09:49:13;;;;;;;35.43;20.33;;;;;;;5.23;100.00;97542.56;5084491;28;20225;-70
2020/12/13 09:51:39;;;;;;;42.77;21.97;;;;;;;5.01;100.00;97536.06;5090011;28;20292;-69
2020/12/13 09:54:05;;;;;;;42.87;22.97;;;;;;;4.88;100.00;97533.41;5090165;28;20281;-73
2020/12/13 09:56:31;;;;;;;38.70;23.07;;;;;;;4.79;100.00;97532.56;5094564;28;20204;-70
2020/12/13 09:58:57;;;;;;;40.37;22.10;;;;;;;4.91;100.00;97528.13;5095361;28;20215;-71
2020/12/13 10:01:23;;;;;;;43.63;25.00;;;;;;;4.75;100.00;97539.78;5095821;28;20240;-67
2020/12/13 10:03:53;;;;;;;48.50;24.93;;;;;;;4.82;100.00;97534.66;5094773;28;20587;-68
2020/12/13 10:11:29;;;;;;;48.27;24.97;;;;;;;5.32;100.00;97535.97;5094945;28;20303;-69
2020/12/13 10:13:56;;;;;;;47.77;24.93;;;;;;;5.20;100.00;97535.78;5093016;28;20225;-70
2020/12/13 10:16:22;;;;;;;54.53;24.93;;;;;;;5.20;100.00;97537.72;5094298;28;20213;-71
2020/12/13 10:18:49;;;;;;;45.03;23.73;;;;;;;5.14;100.00;97539.78;5094950;28;20231;-70
2020/12/13 10:21:26;;;;;;;42.23;23.90;;;;;;;5.00;100.00;97533.63;5096298;28;20281;-70
2020/12/13 10:23:52;;;;;;;46.60;25.00;;;;;;;4.93;100.00;97534.09;5095664;28;20566;-69
2020/12/13 10:26:30;;;;;;;47.17;25.43;;;;;;;4.98;100.00;97535.88;5093959;28;20211;-69
2020/12/13 10:28:57;;;;;;;46.27;23.57;;;;;;;4.88;100.00;97530.69;5095371;28;20621;-70
2020/12/13 10:31:35;;;;;;;46.00;24.40;;;;;;;5.01;100.00;97533.31;5093956;28;20216;-70
2020/12/13 10:34:03;;;;;;;43.43;23.97;;;;;;;5.46;100.00;97533.91;5093678;28;20264;-70
2020/12/13 10:36:37;;;;;;;48.63;26.20;;;;;;;5.77;100.00;97534.59;5077458;28;20669;-70
2020/12/13 10:39:05;;;;;;;48.00;25.87;;;;;;;5.27;100.00;97522.47;5093228;28;20216;-69
2020/12/13 10:41:32;;;;;;;42.63;25.00;;;;;;;5.30;100.00;97523.75;5095198;28;20295;-70
2020/12/13 10:43:59;;;;;;;45.93;24.77;;;;;;;5.15;100.00;97523.06;5093916;28;20307;-69
2020/12/13 10:46:28;;;;;;;52.80;24.20;;;;;;;4.98;100.00;97522.22;5092597;28;20200;-70
2020/12/13 10:48:54;;;;;;;52.20;25.33;;;;;;;5.18;100.00;97530.63;5092085;28;20204;-70
2020/12/13 10:51:22;;;;;;;50.40;26.43;;;;;;;5.18;100.00;97529.03;5083741;28;20280;-70
2020/12/13 10:53:48;;;;;;;49.17;25.93;;;;;;;5.06;100.00;97529.63;5086456;28;20270;-71
2020/12/13 10:56:15;;;;;;;45.63;25.40;;;;;;;5.14;100.00;97523.38;5095911;28;20201;-71
2020/12/13 10:58:43;;;;;;;53.77;25.33;;;;;;;5.26;100.00;97536.44;5095996;28;20243;-71
2020/12/13 11:01:13;;;;;;;69.07;26.17;;;;;;;5.19;100.00;97528.72;5094614;28;20227;-70
2020/12/13 11:03:40;;;;;;;51.97;25.03;;;;;;;5.29;100.00;97520.22;5092682;28;20920;-74
2020/12/13 11:06:09;;;;;;;68.70;26.90;;;;;;;5.07;100.00;97523.06;5092453;28;20208;-71
2020/12/13 11:08:36;;;;;;;55.63;26.70;;;;;;;5.20;100.00;97522.09;5094025;28;20291;-70
2020/12/13 11:11:02;;;;;;;48.47;25.93;;;;;;;5.34;100.00;97522.81;5087668;28;20680;-70
2020/12/13 11:13:28;;;;;;;48.53;26.67;;;;;;;5.30;100.00;97532.75;5094019;28;20283;-76
2020/12/13 11:15:54;;;;;;;48.67;27.30;;;;;;;5.36;100.00;97531.50;5091927;28;20307;-73
2020/12/13 11:18:20;;;;;;;53.67;27.30;;;;;;;5.45;100.00;97532.31;5094312;28;20254;-73
2020/12/13 11:20:46;;;;;;;51.83;26.87;;;;;;;5.32;100.00;97530.50;5093434;28;20238;-70
2020/12/13 11:23:16;;;;;;;49.33;27.40;;;;;;;5.53;100.00;97530.72;5093621;28;20211;-73
2020/12/13 11:25:42;;;;;;;56.43;25.97;;;;;;;5.37;100.00;97533.09;5090962;28;20228;-70
2020/12/13 11:28:09;;;;;;;58.63;26.00;;;;;;;5.38;100.00;97540.19;5093693;28;20295;-69
2020/12/13 11:30:35;;;;;;;56.17;27.17;;;;;;;5.46;100.00;97535.84;5093490;28;20208;-69
2020/12/13 11:33:02;;;;;;;50.87;27.23;;;;;;;5.50;100.00;97537.63;5092663;28;20235;-70
2020/12/13 11:35:28;;;;;;;51.33;27.07;;;;;;;5.45;100.00;97539.72;5092731;28;20234;-70
2020/12/13 11:37:54;;;;;;;48.30;26.43;;;;;;;5.48;100.00;97539.88;5097323;28;20204;-68
2020/12/13 11:40:25;;;;;;;51.23;27.37;;;;;;;5.61;100.00;97540.84;5115136;28;20231;-75
2020/12/13 11:42:51;;;;;;;55.47;26.63;;;;;;;5.65;100.00;97533.63;5096947;28;20200;-70
2020/12/13 11:45:17;;;;;;;67.57;28.73;;;;;;;5.59;100.00;97524.75;5092514;28;20255;-70
2020/12/13 11:47:43;;;;;;;58.07;29.63;;;;;;;5.51;100.00;97533.75;5094655;28;20258;-70
2020/12/13 11:50:11;;;;;;;52.67;28.23;;;;;;;5.53;100.00;97531.50;5095477;28;20236;-69
2020/12/13 11:52:40;;;;;;;52.93;27.80;;;;;;;5.69;100.00;97532.66;5093377;28;20207;-69
2020/12/13 11:55:07;;;;;;;67.23;28.47;;;;;;;5.57;100.00;97532.50;5091472;28;20371;-69
2020/12/13 11:57:34;;;;;;;67.70;28.60;;;;;;;5.42;100.00;97538.41;5093045;28;20236;-70
2020/12/13 12:00:15;;;;;;;57.90;28.97;;;;;;;5.53;100.00;97547.16;5092747;28;20204;-69
2020/12/13 12:02:47;;;;;;;63.13;27.87;;;;;;;5.53;100.00;97545.19;5092762;28;20291;-69
2020/12/13 12:05:13;;;;;;;65.00;28.27;;;;;;;5.61;100.00;97543.59;5090559;28;20316;-70
2020/12/13 12:07:39;;;;;;;51.87;27.47;;;;;;;5.69;100.00;97556.50;5091465;28;20213;-70